Time,TemperatureF,DewpointF,PressureIn,WindDirection,WindDirectionDegrees,WindSpeedMPH,WindSpeedGustMPH,Humidity,HourlyPrecipIn,Conditions,Clouds,dailyrainin,SoftwareType,DateUTC
2013-11-21 00:01:00,27.9,16.6,30.29,North,355,0.0,0.0,62,0.00,CLR,SCT,0.00,WeatherDisplay:10.37,2013-11-21 05:01:00,
2013-11-21 00:02:00,27.9,16.6,30.29,North,355,0.0,0.0,62,0.00,CLR,SCT,0.00,WeatherDisplay:10.37,2013-11-21 05:02:00,
2013-11-21 00:07:00,27.8,16.8,30.29,North,355,0.0,0.0,63,0.00,CLR,SCT,0.00,WeatherDisplay:10.37,2013-11-21 05:07:00,
2013-11-21 00:12:00,27.6,16.6,30.29,ENE,62,1.1,2.3,63,0.00,CLR,SCT,0.00,WeatherDisplay:10.37,2013-11-21 05:12:00,
2013-11-21 00:17:00,27.0,16.8,30.28,ENE,59,0.7,2.3,65,0.00,CLR,SCT,0.00,WeatherDisplay:10.37,2013-11-21 05:17:00,
2013-11-21 00:22:00,27.1,15.8,30.28,NNE,29,0.7,2.3,62,0.00,CLR,SCT,0.00,WeatherDisplay:10.37,2013-11-21 05:22:00,
2013-11-21 00:27:00,27.8,16.1,30.28,NNE,30,0.0,0.0,61,0.00,CLR,SCT,0.00,WeatherDisplay:10.37,2013-11-21 05:27:00,
2013-11-21 00:32:00,27.8,16.5,30.28,ENE,63,0.4,2.3,62,0.00,CLR,SCT,0.00,WeatherDisplay:10.37,2013-11-21 05:32:00,
2013-11-21 00:37:00,27.8,15.7,30.28,ENE,63,0.6,1.1,60,0.00,CLR,SCT,0.00,WeatherDisplay:10.37,2013-11-21 05:37:00,
2013-11-21 00:42:00,28.0,16.3,30.29,ENE,65,0.0,0.0,61,0.00,CLR,SCT,0.00,WeatherDisplay:10.37,2013-11-21 05:42:00,
2013-11-21 00:47:00,28.0,16.3,30.29,ENE,65,0.6,1.1,61,0.00,CLR,SCT,0.00,WeatherDisplay:10.37,2013-11-21 05:47:00,
2013-11-21 00:52:00,27.5,16.5,30.29,ENE,65,0.0,1.1,63,0.00,CLR,SCT,0.00,WeatherDisplay:10.37,2013-11-21 05:52:00,
2013-11-21 00:57:00,26.9,16.3,30.30,ENE,65,0.0,0.0,64,0.00,CLR,SCT,0.00,WeatherDisplay:10.37,2013-11-21 05:57:00,
2013-11-21 01:02:00,26.3,16.8,30.30,ENE,65,0.0,0.0,67,0.00,CLR,SCT,0.00,WeatherDisplay:10.37,2013-11-21 06:02:00,
2013-11-21 01:07:00,25.6,17.2,30.30,ENE,65,0.0,0.0,70,0.00,CLR,SCT,0.00,WeatherDisplay:10.37,2013-11-21 06:07:00,
2013-11-21 01:12:00,24.9,17.1,30.30,ENE,65,0.0,0.0,72,0.00,CLR,SCT,0.00,WeatherDisplay:10.37,2013-11-21 06:12:00,
2013-11-21 01:17:00,24.7,16.6,30.30,ENE,65,0.0,0.0,71,0.00,CLR,SCT,0.00,WeatherDisplay:10.37,2013-11-21 06:17:00,
2013-11-21 01:22:00,24.6,16.5,30.30,ENE,65,0.0,0.0,71,0.00,CLR,SCT,0.00,WeatherDisplay:10.37,2013-11-21 06:22:00,
2013-11-21 01:27:00,24.6,16.5,30.30,ENE,65,0.0,0.0,71,0.00,CLR,SCT,0.00,WeatherDisplay:10.37,2013-11-21 06:27:00,
2013-11-21 01:32:00,24.8,16.7,30.30,ENE,65,0.0,0.0,71,0.00,CLR,SCT,0.00,WeatherDisplay:10.37,2013-11-21 06:32:00,
2013-11-21 01:37:00,25.0,16.6,30.30,ENE,65,0.0,0.0,70,0.00,CLR,SCT,0.00,WeatherDisplay:10.37,2013-11-21 06:37:00,
2013-11-21 01:42:00,25.2,16.5,30.31,ENE,65,0.0,0.0,69,0.00,CLR,SCT,0.00,WeatherDisplay:10.37,2013-11-21 06:42:00,
2013-11-21 01:47:00,25.3,16.5,30.31,ENE,65,0.0,0.0,69,0.00,CLR,SCT,0.00,WeatherDisplay:10.37,2013-11-21 06:47:00,
2013-11-21 01:52:00,25.4,16.3,30.31,ENE,65,0.0,0.0,68,0.00,CLR,SCT,0.00,WeatherDisplay:10.37,2013-11-21 06:52:00,
2013-11-21 01:57:00,25.5,16.1,30.31,ENE,65,0.0,0.0,67,0.00,CLR,SCT,0.00,WeatherDisplay:10.37,2013-11-21 06:57:00,
2013-11-21 02:02:00,25.5,16.1,30.30,ENE,65,0.0,0.0,67,0.00,CLR,SCT,0.00,WeatherDisplay:10.37,2013-11-21 07:02:00,
2013-11-21 02:07:00,25.6,15.8,30.30,ENE,65,0.0,0.0,66,0.00,CLR,SCT,0.00,WeatherDisplay:10.37,2013-11-21 07:07:00,
2013-11-21 02:12:00,25.7,15.9,30.30,ENE,65,0.0,0.0,66,0.00,CLR,SCT,0.00,WeatherDisplay:10.37,2013-11-21 07:12:00,
2013-11-21 02:17:00,25.8,15.6,30.31,ENE,65,0.0,0.0,65,0.00,CLR,SCT,0.00,WeatherDisplay:10.37,2013-11-21 07:17:00,
2013-11-21 02:22:00,25.9,15.7,30.31,ENE,65,0.0,0.0,65,0.00,CLR,SCT,0.00,WeatherDisplay:10.37,2013-11-21 07:22:00,
2013-11-21 02:27:00,26.1,15.9,30.31,ENE,65,0.0,0.0,65,0.00,CLR,SCT,0.00,WeatherDisplay:10.37,2013-11-21 07:27:00,
2013-11-21 02:32:00,26.2,16.0,30.31,ENE,65,0.0,0.0,65,0.00,CLR,SCT,0.00,WeatherDisplay:10.37,2013-11-21 07:32:00,
2013-11-21 02:37:00,26.3,16.1,30.31,ENE,65,0.0,0.0,65,0.00,CLR,SCT,0.00,WeatherDisplay:10.37,2013-11-21 07:37:00,
2013-11-21 02:42:00,26.2,16.0,30.31,ENE,65,0.0,0.0,65,0.00,CLR,SCT,0.00,WeatherDisplay:10.37,2013-11-21 07:42:00,
2013-11-21 02:47:00,26.2,16.0,30.31,ENE,65,0.0,0.0,65,0.00,CLR,SCT,0.00,WeatherDisplay:10.37,2013-11-21 07:47:00,
2013-11-21 02:52:00,26.1,16.3,30.30,ENE,65,0.0,0.0,66,0.00,CLR,SCT,0.00,WeatherDisplay:10.37,2013-11-21 07:52:00,
2013-11-21 02:57:00,26.1,16.3,30.30,ENE,65,0.0,0.0,66,0.00,CLR,SCT,0.00,WeatherDisplay:10.37,2013-11-21 07:57:00,
2013-11-21 03:02:00,26.1,16.3,30.30,ENE,65,0.0,0.0,66,0.00,CLR,SCT,0.00,WeatherDisplay:10.37,2013-11-21 08:02:00,
2013-11-21 03:07:00,26.1,16.3,30.30,ENE,65,0.0,0.0,66,0.00,CLR,SCT,0.00,WeatherDisplay:10.37,2013-11-21 08:07:00,
2013-11-21 03:12:00,26.1,15.9,30.30,ENE,65,0.0,0.0,65,0.00,CLR,SCT,0.00,WeatherDisplay:10.37,2013-11-21 08:12:00,
2013-11-21 03:17:00,26.2,15.3,30.30,ENE,65,0.0,0.0,63,0.00,CLR,SCT,0.00,WeatherDisplay:10.37,2013-11-21 08:17:00,
2013-11-21 03:22:00,26.3,15.4,30.29,ENE,65,0.0,0.0,63,0.00,CLR,SCT,0.00,WeatherDisplay:10.37,2013-11-21 08:22:00,
2013-11-21 03:27:00,26.6,15.3,30.29,ENE,65,0.0,0.0,62,0.00,CLR,SCT,0.00,WeatherDisplay:10.37,2013-11-21 08:27:00,
2013-11-21 03:32:00,26.8,15.5,30.29,ENE,65,0.0,0.0,62,0.00,CLR,SCT,0.00,WeatherDisplay:10.37,2013-11-21 08:32:00,
2013-11-21 03:37:00,26.9,15.2,30.29,ENE,65,0.0,1.1,61,0.00,CLR,SCT,0.00,WeatherDisplay:10.37,2013-11-21 08:37:00,
2013-11-21 03:42:00,26.9,15.2,30.29,ENE,64,0.2,0.0,61,0.00,CLR,SCT,0.00,WeatherDisplay:10.37,2013-11-21 08:42:00,
2013-11-21 03:47:00,27.0,15.3,30.29,ENE,63,0.0,0.0,61,0.00,CLR,SCT,0.00,WeatherDisplay:10.37,2013-11-21 08:47:00,
2013-11-21 03:52:00,26.9,15.2,30.29,ENE,63,0.0,0.0,61,0.00,CLR,SCT,0.00,WeatherDisplay:10.37,2013-11-21 08:52:00,
2013-11-21 03:57:00,26.7,15.4,30.29,ENE,63,0.0,0.0,62,0.00,CLR,SCT,0.00,WeatherDisplay:10.37,2013-11-21 08:57:00,
2013-11-21 04:02:00,26.5,15.2,30.29,ENE,63,0.0,0.0,62,0.00,CLR,SCT,0.00,WeatherDisplay:10.37,2013-11-21 09:02:00,
2013-11-21 04:07:00,26.4,15.5,30.29,SE,130,0.0,1.1,63,0.00,CLR,SCT,0.00,WeatherDisplay:10.37,2013-11-21 09:07:00,
2013-11-21 04:12:00,26.3,15.0,30.29,SE,130,0.1,1.1,62,0.00,CLR,SCT,0.00,WeatherDisplay:10.37,2013-11-21 09:12:00,
2013-11-21 04:17:00,26.4,15.9,30.30,SE,130,0.3,1.1,64,0.00,CLR,SCT,0.00,WeatherDisplay:10.37,2013-11-21 09:17:00,
2013-11-21 04:22:00,26.1,15.2,30.30,SE,130,0.0,0.0,63,0.00,CLR,SCT,0.00,WeatherDisplay:10.37,2013-11-21 09:22:00,
2013-11-21 04:27:00,26.0,15.1,30.30,SE,130,0.0,0.0,63,0.00,CLR,SCT,0.00,WeatherDisplay:10.37,2013-11-21 09:27:00,
2013-11-21 04:32:00,25.8,15.3,30.30,SE,130,0.0,0.0,64,0.00,CLR,SCT,0.00,WeatherDisplay:10.37,2013-11-21 09:32:00,
2013-11-21 04:37:00,25.8,15.3,30.30,SE,130,0.0,0.0,64,0.00,CLR,SCT,0.00,WeatherDisplay:10.37,2013-11-21 09:37:00,
2013-11-21 04:42:00,25.8,14.9,30.29,SE,130,0.0,0.0,63,0.00,CLR,SCT,0.00,WeatherDisplay:10.37,2013-11-21 09:42:00,
2013-11-21 04:47:00,25.7,15.2,30.29,NNE,30,0.0,0.0,64,0.00,CLR,SCT,0.00,WeatherDisplay:10.37,2013-11-21 09:47:00,
2013-11-21 04:52:00,25.8,14.9,30.30,ESE,106,0.0,1.1,63,0.00,CLR,SCT,0.00,WeatherDisplay:10.37,2013-11-21 09:52:00,
2013-11-21 04:57:00,25.6,15.5,30.30,ESE,106,1.0,2.3,65,0.00,CLR,SCT,0.00,WeatherDisplay:10.37,2013-11-21 09:57:00,
2013-11-21 05:02:00,25.0,15.6,30.30,ESE,106,0.0,0.0,67,0.00,CLR,SCT,0.00,WeatherDisplay:10.37,2013-11-21 10:02:00,
2013-11-21 05:07:00,24.5,15.1,30.30,ESE,106,0.0,0.0,67,0.00,CLR,SCT,0.00,WeatherDisplay:10.37,2013-11-21 10:07:00,
2013-11-21 05:12:00,24.3,15.3,30.30,ESE,106,0.1,1.1,68,0.00,CLR,SCT,0.00,WeatherDisplay:10.37,2013-11-21 10:12:00,
2013-11-21 05:17:00,24.2,15.5,30.30,ESE,106,0.0,0.0,69,0.00,CLR,SCT,0.00,WeatherDisplay:10.37,2013-11-21 10:17:00,
2013-11-21 05:22:00,24.2,15.5,30.30,ESE,106,0.0,0.0,69,0.00,CLR,SCT,0.00,WeatherDisplay:10.37,2013-11-21 10:22:00,
2013-11-21 05:27:00,24.0,15.3,30.30,ESE,106,0.0,0.0,69,0.00,CLR,SCT,0.00,WeatherDisplay:10.37,2013-11-21 10:27:00,
2013-11-21 05:32:00,24.0,14.6,30.30,ESE,106,0.0,0.0,67,0.00,CLR,SCT,0.00,WeatherDisplay:10.37,2013-11-21 10:32:00,
2013-11-21 05:37:00,24.0,15.0,30.30,ESE,106,0.0,0.0,68,0.00,CLR,SCT,0.00,WeatherDisplay:10.37,2013-11-21 10:37:00,
2013-11-21 05:42:00,24.1,15.1,30.30,ESE,106,0.0,0.0,68,0.00,CLR,SCT,0.00,WeatherDisplay:10.37,2013-11-21 10:42:00,
2013-11-21 05:47:00,24.3,14.9,30.30,ESE,106,0.0,0.0,67,0.00,CLR,SCT,0.00,WeatherDisplay:10.37,2013-11-21 10:47:00,
2013-11-21 05:52:00,24.5,14.8,30.30,ESE,106,0.0,0.0,66,0.00,CLR,SCT,0.00,WeatherDisplay:10.37,2013-11-21 10:52:00,
2013-11-21 05:57:00,24.7,14.9,30.30,ESE,106,0.0,0.0,66,0.00,CLR,SCT,0.00,WeatherDisplay:10.37,2013-11-21 10:57:00,
2013-11-21 06:02:00,24.8,15.0,30.30,ESE,106,0.0,0.0,66,0.00,CLR,SCT,0.00,WeatherDisplay:10.37,2013-11-21 11:02:00,
2013-11-21 06:07:00,24.9,14.8,30.30,ESE,106,0.0,0.0,65,0.00,CLR,SCT,0.00,WeatherDisplay:10.37,2013-11-21 11:07:00,
2013-11-21 06:12:00,25.1,15.0,30.30,ESE,106,0.0,0.0,65,0.00,CLR,SCT,0.00,WeatherDisplay:10.37,2013-11-21 11:12:00,
2013-11-21 06:17:00,25.2,15.1,30.30,ESE,106,0.0,0.0,65,0.00,CLR,SCT,0.00,WeatherDisplay:10.37,2013-11-21 11:17:00,
2013-11-21 06:22:00,25.1,15.3,30.30,ESE,106,0.0,0.0,66,0.00,CLR,SCT,0.00,WeatherDisplay:10.37,2013-11-21 11:22:00,
2013-11-21 06:27:00,25.0,14.9,30.30,ESE,106,0.0,0.0,65,0.00,CLR,SCT,0.00,WeatherDisplay:10.37,2013-11-21 11:27:00,
2013-11-21 06:32:00,24.9,14.8,30.31,ESE,106,0.0,0.0,65,0.00,CLR,SCT,0.00,WeatherDisplay:10.37,2013-11-21 11:32:00,
2013-11-21 06:37:00,24.9,14.8,30.31,ESE,106,0.0,0.0,65,0.00,CLR,SCT,0.00,WeatherDisplay:10.37,2013-11-21 11:37:00,
2013-11-21 06:42:00,24.9,14.8,30.31,ESE,106,0.0,0.0,65,0.00,CLR,SCT,0.00,WeatherDisplay:10.37,2013-11-21 11:42:00,
2013-11-21 06:47:00,25.0,14.9,30.31,ESE,106,0.0,0.0,65,0.00,CLR,SCT,0.00,WeatherDisplay:10.37,2013-11-21 11:47:00,
2013-11-21 06:52:00,25.1,15.0,30.31,ESE,106,0.0,0.0,65,0.00,CLR,SCT,0.00,WeatherDisplay:10.37,2013-11-21 11:52:00,
2013-11-21 06:57:00,25.1,15.0,30.31,ESE,106,0.0,0.0,65,0.00,CLR,SCT,0.00,WeatherDisplay:10.37,2013-11-21 11:57:00,
2013-11-21 07:02:00,25.1,14.6,30.31,ESE,106,0.0,0.0,64,0.00,CLR,SCT,0.00,WeatherDisplay:10.37,2013-11-21 12:02:00,
2013-11-21 07:07:00,25.2,14.7,30.31,ESE,106,0.0,0.0,64,0.00,CLR,SCT,0.00,WeatherDisplay:10.37,2013-11-21 12:07:00,
2013-11-21 07:12:00,25.2,14.7,30.31,ESE,106,0.0,0.0,64,0.00,CLR,SCT,0.00,WeatherDisplay:10.37,2013-11-21 12:12:00,
2013-11-21 07:17:00,25.3,14.8,30.31,ESE,106,0.0,0.0,64,0.00,CLR,SCT,0.00,WeatherDisplay:10.37,2013-11-21 12:17:00,
2013-11-21 07:22:00,25.4,14.5,30.31,ESE,106,0.0,0.0,63,0.00,CLR,SCT,0.00,WeatherDisplay:10.37,2013-11-21 12:22:00,
2013-11-21 07:27:00,25.5,14.6,30.31,ESE,106,0.0,0.0,63,0.00,CLR,SCT,0.00,WeatherDisplay:10.37,2013-11-21 12:27:00,
2013-11-21 07:32:00,25.7,14.5,30.31,ESE,106,0.0,0.0,62,0.00,CLR,SCT,0.00,WeatherDisplay:10.37,2013-11-21 12:32:00,
2013-11-21 07:37:00,26.0,14.8,30.32,ESE,106,0.0,0.0,62,0.00,CLR,SCT,0.00,WeatherDisplay:10.37,2013-11-21 12:37:00,
2013-11-21 07:42:00,26.2,14.6,30.32,ESE,106,0.0,0.0,61,0.00,CLR,SCT,0.00,WeatherDisplay:10.37,2013-11-21 12:42:00,
2013-11-21 07:47:00,26.5,14.9,30.31,ESE,106,0.0,0.0,61,0.00,CLR,SCT,0.00,WeatherDisplay:10.37,2013-11-21 12:47:00,
2013-11-21 07:52:00,26.7,14.7,30.31,ESE,106,0.0,0.0,60,0.00,CLR,SCT,0.00,WeatherDisplay:10.37,2013-11-21 12:52:00,
2013-11-21 07:57:00,27.0,14.9,30.31,ESE,106,0.0,0.0,60,0.00,CLR,SCT,0.00,WeatherDisplay:10.37,2013-11-21 12:57:00,
2013-11-21 08:02:00,27.3,14.8,30.31,ESE,106,0.0,0.0,59,0.00,CLR,SCT,0.00,WeatherDisplay:10.37,2013-11-21 13:02:00,
2013-11-21 08:07:00,27.5,15.0,30.31,ESE,106,0.0,0.0,59,0.00,CLR,SCT,0.00,WeatherDisplay:10.37,2013-11-21 13:07:00,
2013-11-21 08:12:00,27.7,15.2,30.30,ESE,106,0.0,0.0,59,0.00,CLR,SCT,0.00,WeatherDisplay:10.37,2013-11-21 13:12:00,
2013-11-21 08:17:00,28.0,17.0,30.30,ESE,106,0.0,1.1,63,0.00,CLR,SCT,0.00,WeatherDisplay:10.37,2013-11-21 13:17:00,
2013-11-21 08:22:00,28.2,15.3,30.30,ESE,106,0.0,0.0,58,0.00,CLR,SCT,0.00,WeatherDisplay:10.37,2013-11-21 13:22:00,
2013-11-21 08:27:00,28.4,15.5,30.30,ESE,106,0.0,0.0,58,0.00,CLR,SCT,0.00,WeatherDisplay:10.37,2013-11-21 13:27:00,
2013-11-21 08:32:00,28.7,16.2,30.30,ESE,106,0.0,0.0,59,0.00,CLR,SCT,0.00,WeatherDisplay:10.37,2013-11-21 13:32:00,
2013-11-21 08:37:00,28.8,16.3,30.30,ESE,106,0.0,0.0,59,0.00,CLR,SCT,0.00,WeatherDisplay:10.37,2013-11-21 13:37:00,
2013-11-21 08:42:00,28.9,16.0,30.30,ESE,106,0.0,0.0,58,0.00,CLR,SCT,0.00,WeatherDisplay:10.37,2013-11-21 13:42:00,
2013-11-21 08:47:00,29.0,16.1,30.30,ESE,106,0.0,0.0,58,0.00,CLR,SCT,0.00,WeatherDisplay:10.37,2013-11-21 13:47:00,
2013-11-21 08:52:00,29.1,16.5,30.30,ESE,106,0.0,0.0,59,0.00,CLR,SCT,0.00,WeatherDisplay:10.37,2013-11-21 13:52:00,
2013-11-21 08:57:00,29.4,17.2,30.30,ESE,106,0.0,0.0,60,0.00,CLR,SCT,0.00,WeatherDisplay:10.37,2013-11-21 13:57:00,
2013-11-21 09:02:00,29.9,17.3,30.30,NNE,30,1.1,2.3,59,0.00,CLR,SCT,0.00,WeatherDisplay:10.37,2013-11-21 14:02:00,
2013-11-21 09:07:00,30.2,16.8,30.30,NNE,30,0.0,0.0,57,0.00,CLR,SCT,0.00,WeatherDisplay:10.37,2013-11-21 14:07:00,
2013-11-21 09:12:00,30.3,17.3,30.30,NNE,30,0.0,0.0,58,0.00,CLR,SCT,0.00,WeatherDisplay:10.37,2013-11-21 14:12:00,
2013-11-21 09:17:00,30.6,17.2,30.30,NNE,30,0.0,1.1,57,0.00,CLR,SCT,0.00,WeatherDisplay:10.37,2013-11-21 14:17:00,
2013-11-21 09:22:00,31.0,17.5,30.30,ENE,73,1.2,2.3,57,0.00,CLR,SCT,0.00,WeatherDisplay:10.37,2013-11-21 14:22:00,
2013-11-21 09:27:00,32.3,17.1,30.30,NE,52,0.8,3.5,53,0.00,CLR,SCT,0.00,WeatherDisplay:10.37,2013-11-21 14:27:00,
2013-11-21 09:32:00,33.5,16.8,30.30,East,84,1.4,2.3,50,0.00,CLR,SCT,0.00,WeatherDisplay:10.37,2013-11-21 14:32:00,
2013-11-21 09:37:00,34.5,16.3,30.30,East,90,1.7,3.5,47,0.00,CLR,SCT,0.00,WeatherDisplay:10.37,2013-11-21 14:37:00,
2013-11-21 09:42:00,34.9,19.5,30.30,East,93,0.0,0.0,53,0.00,CLR,SCT,0.00,WeatherDisplay:10.37,2013-11-21 14:42:00,
2013-11-21 09:47:00,34.2,20.1,30.30,East,93,0.0,2.3,56,0.00,CLR,SCT,0.00,WeatherDisplay:10.37,2013-11-21 14:47:00,
2013-11-21 09:52:00,34.7,19.3,30.30,East,94,0.8,1.1,53,0.00,CLR,SCT,0.00,WeatherDisplay:10.37,2013-11-21 14:52:00,
2013-11-21 09:57:00,35.7,17.9,30.30,SSW,194,0.0,1.1,48,0.00,CLR,SCT,0.00,WeatherDisplay:10.37,2013-11-21 14:57:00,
2013-11-21 10:02:00,36.4,18.1,30.30,ESE,121,0.2,1.1,47,0.00,CLR,SCT,0.00,WeatherDisplay:10.37,2013-11-21 15:02:00,
2013-11-21 10:07:00,37.1,17.7,30.30,ESE,121,0.9,2.3,45,0.00,CLR,SCT,0.00,WeatherDisplay:10.37,2013-11-21 15:07:00,
2013-11-21 10:12:00,37.1,17.7,30.30,ESE,109,0.8,1.1,45,0.00,CLR,SCT,0.00,WeatherDisplay:10.37,2013-11-21 15:12:00,
2013-11-21 10:17:00,37.1,20.6,30.29,East,92,1.2,3.5,51,0.00,CLR,SCT,0.00,WeatherDisplay:10.37,2013-11-21 15:17:00,
2013-11-21 10:22:00,36.5,20.5,30.29,East,92,0.0,0.0,52,0.00,CLR,SCT,0.00,WeatherDisplay:10.37,2013-11-21 15:22:00,
2013-11-21 10:27:00,36.2,20.7,30.29,SE,138,1.1,2.3,53,0.00,CLR,SCT,0.00,WeatherDisplay:10.37,2013-11-21 15:27:00,
2013-11-21 10:32:00,36.1,21.0,30.29,SW,232,0.2,2.3,54,0.00,CLR,SCT,0.00,WeatherDisplay:10.37,2013-11-21 15:32:00,
2013-11-21 10:37:00,36.2,20.7,30.29,SW,232,0.5,1.1,53,0.00,CLR,SCT,0.00,WeatherDisplay:10.37,2013-11-21 15:37:00,
2013-11-21 10:42:00,36.5,21.4,30.28,NW,308,0.8,2.3,54,0.00,CLR,SCT,0.00,WeatherDisplay:10.37,2013-11-21 15:42:00,
2013-11-21 10:47:00,37.3,22.2,30.28,ENE,76,0.4,2.3,54,0.00,CLR,SCT,0.00,WeatherDisplay:10.37,2013-11-21 15:47:00,
2013-11-21 10:52:00,37.8,21.7,30.28,WNW,284,1.1,2.3,52,0.00,CLR,SCT,0.00,WeatherDisplay:10.37,2013-11-21 15:52:00,
2013-11-21 10:57:00,38.6,23.4,30.27,SE,128,1.6,3.5,54,0.00,CLR,SCT,0.00,WeatherDisplay:10.37,2013-11-21 15:57:00,
2013-11-21 11:02:00,39.9,24.1,30.27,SSE,156,1.9,4.0,53,0.00,CLR,SCT,0.00,WeatherDisplay:10.37,2013-11-21 16:02:00,
2013-11-21 11:07:00,40.4,23.7,30.27,SW,234,2.2,3.5,51,0.00,CLR,SCT,0.00,WeatherDisplay:10.37,2013-11-21 16:07:00,
2013-11-21 11:12:00,40.3,23.1,30.26,West,268,0.8,2.3,50,0.00,CLR,SCT,0.00,WeatherDisplay:10.37,2013-11-21 16:12:00,
2013-11-21 11:17:00,40.3,22.6,30.26,SW,229,0.5,1.1,49,0.00,CLR,SCT,0.00,WeatherDisplay:10.37,2013-11-21 16:17:00,
2013-11-21 11:22:00,40.6,24.3,30.26,NW,317,3.3,3.5,52,0.00,CLR,SCT,0.00,WeatherDisplay:10.37,2013-11-21 16:22:00,
2013-11-21 11:27:00,40.7,23.5,30.26,NW,315,1.4,2.3,50,0.00,CLR,SCT,0.00,WeatherDisplay:10.37,2013-11-21 16:27:00,
2013-11-21 11:32:00,40.7,23.5,30.26,WNW,299,0.4,2.0,50,0.00,CLR,SCT,0.00,WeatherDisplay:10.37,2013-11-21 16:32:00,
2013-11-21 11:37:00,41.1,23.9,30.26,WSW,254,1.8,3.5,50,0.00,CLR,SCT,0.00,WeatherDisplay:10.37,2013-11-21 16:37:00,
2013-11-21 11:42:00,41.1,22.9,30.26,WSW,252,1.8,2.3,48,0.00,CLR,SCT,0.00,WeatherDisplay:10.37,2013-11-21 16:42:00,
2013-11-21 11:47:00,41.3,24.0,30.25,SSW,198,2.6,3.5,50,0.00,CLR,SCT,0.00,WeatherDisplay:10.37,2013-11-21 16:47:00,
2013-11-21 11:52:00,41.7,24.9,30.25,SSE,167,0.1,3.5,51,0.00,CLR,SCT,0.00,WeatherDisplay:10.37,2013-11-21 16:52:00,
2013-11-21 11:57:00,42.4,26.0,30.25,South,190,1.6,3.5,52,0.00,CLR,SCT,0.00,WeatherDisplay:10.37,2013-11-21 16:57:00,
2013-11-21 12:02:00,42.3,25.9,30.24,South,183,1.6,3.5,52,0.00,CLR,SCT,0.00,WeatherDisplay:10.37,2013-11-21 17:02:00,
2013-11-21 12:07:00,42.7,25.8,30.24,SW,236,1.3,3.5,51,0.00,CLR,SCT,0.00,WeatherDisplay:10.37,2013-11-21 17:07:00,
2013-11-21 12:12:00,42.9,26.0,30.24,SW,215,2.2,4.0,51,0.00,CLR,SCT,0.00,WeatherDisplay:10.37,2013-11-21 17:12:00,
2013-11-21 12:17:00,42.8,25.9,30.23,SSW,197,1.1,2.3,51,0.00,CLR,SCT,0.00,WeatherDisplay:10.37,2013-11-21 17:17:00,
2013-11-21 12:22:00,42.8,26.8,30.23,SSW,197,1.2,1.2,53,0.00,CLR,SCT,0.00,WeatherDisplay:10.37,2013-11-21 17:22:00,
2013-11-21 12:27:00,42.7,27.2,30.22,SSE,167,0.9,2.3,54,0.00,CLR,SCT,0.00,WeatherDisplay:10.37,2013-11-21 17:27:00,
2013-11-21 12:32:00,42.9,26.5,30.22,NW,325,1.2,4.6,52,0.00,CLR,SCT,0.00,WeatherDisplay:10.37,2013-11-21 17:32:00,
2013-11-21 12:37:00,42.9,26.9,30.22,West,271,1.6,2.3,53,0.00,CLR,SCT,0.00,WeatherDisplay:10.37,2013-11-21 17:37:00,
2013-11-21 12:42:00,42.8,25.9,30.22,South,189,2.0,4.6,51,0.00,CLR,SCT,0.00,WeatherDisplay:10.37,2013-11-21 17:42:00,
2013-11-21 12:47:00,42.9,26.0,30.22,SW,215,1.6,2.3,51,0.00,CLR,SCT,0.00,WeatherDisplay:10.37,2013-11-21 17:47:00,
2013-11-21 12:52:00,42.9,26.5,30.22,South,190,1.8,4.0,52,0.00,CLR,SCT,0.00,WeatherDisplay:10.37,2013-11-21 17:52:00,
2013-11-21 12:57:00,42.9,26.5,30.22,West,260,1.0,2.3,52,0.00,CLR,SCT,0.00,WeatherDisplay:10.37,2013-11-21 17:57:00,
2013-11-21 13:02:00,43.2,26.3,30.21,South,178,0.8,2.3,51,0.00,CLR,SCT,0.00,WeatherDisplay:10.37,2013-11-21 18:02:00,
2013-11-21 13:07:00,43.3,25.9,30.21,SSW,192,1.6,3.5,50,0.00,CLR,SCT,0.00,WeatherDisplay:10.37,2013-11-21 18:07:00,
2013-11-21 13:12:00,43.3,26.4,30.20,SW,232,1.4,2.3,51,0.00,CLR,SCT,0.00,WeatherDisplay:10.37,2013-11-21 18:12:00,
2013-11-21 13:17:00,43.3,25.9,30.20,SW,232,2.1,3.5,50,0.00,CLR,SCT,0.00,WeatherDisplay:10.37,2013-11-21 18:17:00,
2013-11-21 13:22:00,43.2,26.3,30.19,SSW,209,0.6,1.1,51,0.00,CLR,SCT,0.00,WeatherDisplay:10.37,2013-11-21 18:22:00,
2013-11-21 13:27:00,43.1,26.2,30.19,SSW,197,2.0,3.5,51,0.00,CLR,SCT,0.00,WeatherDisplay:10.37,2013-11-21 18:27:00,
2013-11-21 13:32:00,43.1,26.7,30.19,SSW,197,0.0,1.1,52,0.00,CLR,SCT,0.00,WeatherDisplay:10.37,2013-11-21 18:32:00,
2013-11-21 13:37:00,43.2,27.2,30.19,SW,218,1.5,2.3,53,0.00,CLR,SCT,0.00,WeatherDisplay:10.37,2013-11-21 18:37:00,
2013-11-21 13:42:00,43.6,27.1,30.18,SSW,208,1.2,2.3,52,0.00,CLR,SCT,0.00,WeatherDisplay:10.37,2013-11-21 18:42:00,
2013-11-21 13:47:00,44.7,27.7,30.18,SSW,200,0.1,2.3,51,0.00,CLR,SCT,0.00,WeatherDisplay:10.37,2013-11-21 18:47:00,
2013-11-21 13:52:00,45.3,27.7,30.18,SE,130,0.2,2.3,50,0.00,CLR,SCT,0.00,WeatherDisplay:10.37,2013-11-21 18:52:00,
2013-11-21 13:57:00,45.5,28.4,30.18,South,174,0.9,2.3,51,0.00,CLR,SCT,0.00,WeatherDisplay:10.37,2013-11-21 18:57:00,
2013-11-21 14:02:00,45.4,28.3,30.17,South,183,0.7,2.3,51,0.00,CLR,SCT,0.00,WeatherDisplay:10.37,2013-11-21 19:02:00,
2013-11-21 14:07:00,45.4,28.8,30.17,SE,133,0.2,1.1,52,0.00,CLR,SCT,0.00,WeatherDisplay:10.37,2013-11-21 19:07:00,
2013-11-21 14:12:00,45.5,29.3,30.17,WSW,243,2.4,3.5,53,0.00,CLR,SCT,0.00,WeatherDisplay:10.37,2013-11-21 19:12:00,
2013-11-21 14:17:00,45.0,29.3,30.17,SW,215,3.5,3.5,54,0.00,CLR,SCT,0.00,WeatherDisplay:10.37,2013-11-21 19:17:00,
2013-11-21 14:22:00,44.7,29.5,30.17,WSW,246,2.9,5.8,55,0.00,CLR,SCT,0.00,WeatherDisplay:10.37,2013-11-21 19:22:00,
2013-11-21 14:27:00,44.7,29.5,30.16,SSW,213,1.0,2.3,55,0.00,CLR,SCT,0.00,WeatherDisplay:10.37,2013-11-21 19:27:00,
2013-11-21 14:32:00,45.1,29.9,30.16,SSW,212,1.6,2.3,55,0.00,CLR,SCT,0.00,WeatherDisplay:10.37,2013-11-21 19:32:00,
2013-11-21 14:37:00,45.5,30.7,30.16,SSE,149,1.4,3.5,56,0.00,CLR,SCT,0.00,WeatherDisplay:10.37,2013-11-21 19:37:00,
2013-11-21 14:42:00,45.6,30.8,30.16,NE,36,1.2,2.3,56,0.00,CLR,SCT,0.00,WeatherDisplay:10.37,2013-11-21 19:42:00,
2013-11-21 14:47:00,45.6,30.3,30.16,WSW,248,3.3,5.8,55,0.00,CLR,SCT,0.00,WeatherDisplay:10.37,2013-11-21 19:47:00,
2013-11-21 14:52:00,45.3,30.5,30.16,SW,227,0.1,1.1,56,0.00,CLR,SCT,0.00,WeatherDisplay:10.37,2013-11-21 19:52:00,
2013-11-21 14:57:00,44.9,30.6,30.16,SSW,209,1.8,3.5,57,0.00,CLR,SCT,0.00,WeatherDisplay:10.37,2013-11-21 19:57:00,
2013-11-21 15:02:00,44.9,31.0,30.16,South,190,2.7,3.5,58,0.00,CLR,SCT,0.00,WeatherDisplay:10.37,2013-11-21 20:02:00,
2013-11-21 15:07:00,44.8,31.3,30.16,SSW,194,0.8,2.3,59,0.00,CLR,SCT,0.00,WeatherDisplay:10.37,2013-11-21 20:07:00,
2013-11-21 15:12:00,44.6,31.1,30.16,SSW,194,0.4,1.1,59,0.00,CLR,SCT,0.00,WeatherDisplay:10.37,2013-11-21 20:12:00,
2013-11-21 15:17:00,44.4,31.4,30.16,SSW,194,1.0,2.3,60,0.00,CLR,SCT,0.00,WeatherDisplay:10.37,2013-11-21 20:17:00,
2013-11-21 15:22:00,44.3,31.3,30.16,SSW,194,0.1,1.1,60,0.00,CLR,SCT,0.00,WeatherDisplay:10.37,2013-11-21 20:22:00,
2013-11-21 15:27:00,44.3,31.3,30.17,SSW,194,0.7,1.1,60,0.00,CLR,SCT,0.00,WeatherDisplay:10.37,2013-11-21 20:27:00,
2013-11-21 15:32:00,44.4,31.8,30.17,SSW,194,1.2,2.3,61,0.00,CLR,SCT,0.00,WeatherDisplay:10.37,2013-11-21 20:32:00,
2013-11-21 15:37:00,44.4,31.8,30.17,SSW,194,0.9,1.1,61,0.00,CLR,SCT,0.00,WeatherDisplay:10.37,2013-11-21 20:37:00,
2013-11-21 15:42:00,44.3,31.7,30.17,SSW,194,0.8,2.3,61,0.00,CLR,SCT,0.00,WeatherDisplay:10.37,2013-11-21 20:42:00,
2013-11-21 15:47:00,44.2,31.6,30.17,SSW,194,0.7,2.3,61,0.00,CLR,SCT,0.00,WeatherDisplay:10.37,2013-11-21 20:47:00,
2013-11-21 15:52:00,44.1,31.9,30.16,SSW,194,0.0,0.0,62,0.00,CLR,SCT,0.00,WeatherDisplay:10.37,2013-11-21 20:52:00,
2013-11-21 15:57:00,43.8,31.6,30.17,SSW,194,0.3,1.1,62,0.00,CLR,SCT,0.00,WeatherDisplay:10.37,2013-11-21 20:57:00,
2013-11-21 16:02:00,43.6,31.8,30.17,SSW,194,0.9,2.3,63,0.00,CLR,SCT,0.00,WeatherDisplay:10.37,2013-11-21 21:02:00,
2013-11-21 16:07:00,43.3,31.5,30.16,SE,144,0.9,2.3,63,0.00,CLR,SCT,0.00,WeatherDisplay:10.37,2013-11-21 21:07:00,
2013-11-21 16:12:00,43.2,31.8,30.16,SE,144,1.0,2.3,64,0.00,CLR,SCT,0.00,WeatherDisplay:10.37,2013-11-21 21:12:00,
2013-11-21 16:17:00,43.0,31.6,30.16,SE,144,0.4,1.1,64,0.00,CLR,SCT,0.00,WeatherDisplay:10.37,2013-11-21 21:17:00,
2013-11-21 16:22:00,42.7,31.7,30.16,SE,144,0.0,0.0,65,0.00,CLR,SCT,0.00,WeatherDisplay:10.37,2013-11-21 21:22:00,
2013-11-21 16:27:00,42.3,31.4,30.16,SE,144,0.1,1.1,65,0.00,CLR,SCT,0.00,WeatherDisplay:10.37,2013-11-21 21:27:00,
2013-11-21 16:32:00,42.0,31.5,30.16,SE,144,0.2,1.1,66,0.00,CLR,SCT,0.00,WeatherDisplay:10.37,2013-11-21 21:32:00,
2013-11-21 16:37:00,41.8,31.3,30.16,SE,144,0.1,1.0,66,0.00,CLR,SCT,0.00,WeatherDisplay:10.37,2013-11-21 21:37:00,
2013-11-21 16:42:00,41.7,31.5,30.16,SE,144,0.6,2.3,67,0.00,CLR,SCT,0.00,WeatherDisplay:10.37,2013-11-21 21:42:00,
2013-11-21 16:47:00,41.7,31.5,30.16,SE,144,0.3,1.1,67,0.00,CLR,SCT,0.00,WeatherDisplay:10.37,2013-11-21 21:47:00,
2013-11-21 16:52:00,41.7,31.9,30.16,SE,144,0.3,1.1,68,0.00,CLR,SCT,0.00,WeatherDisplay:10.37,2013-11-21 21:52:00,
2013-11-21 16:57:00,41.8,32.0,30.16,SE,144,0.4,1.1,68,0.00,CLR,SCT,0.00,WeatherDisplay:10.37,2013-11-21 21:57:00,
2013-11-21 17:02:00,41.7,31.9,30.16,SE,144,0.1,1.1,68,0.00,CLR,SCT,0.00,WeatherDisplay:10.37,2013-11-21 22:02:00,
2013-11-21 17:07:00,41.7,32.3,30.16,SE,144,0.3,1.1,69,0.00,CLR,SCT,0.00,WeatherDisplay:10.37,2013-11-21 22:07:00,
2013-11-21 17:12:00,41.8,32.0,30.16,SE,144,0.5,1.1,68,0.00,CLR,SCT,0.00,WeatherDisplay:10.37,2013-11-21 22:12:00,
2013-11-21 17:17:00,42.0,32.2,30.16,SE,144,0.1,1.1,68,0.00,CLR,SCT,0.00,WeatherDisplay:10.37,2013-11-21 22:17:00,
2013-11-21 17:22:00,42.0,32.2,30.16,SE,144,0.0,0.0,68,0.00,CLR,SCT,0.00,WeatherDisplay:10.37,2013-11-21 22:22:00,
2013-11-21 17:27:00,42.0,32.6,30.16,SE,144,0.0,0.0,69,0.00,CLR,SCT,0.00,WeatherDisplay:10.37,2013-11-21 22:27:00,
2013-11-21 17:32:00,41.8,32.4,30.16,SE,144,0.3,1.1,69,0.00,CLR,SCT,0.00,WeatherDisplay:10.37,2013-11-21 22:32:00,
2013-11-21 17:37:00,41.7,32.3,30.16,SE,144,0.5,1.1,69,0.00,CLR,SCT,0.00,WeatherDisplay:10.37,2013-11-21 22:37:00,
2013-11-21 17:42:00,41.6,32.2,30.16,SE,144,0.4,2.3,69,0.00,CLR,SCT,0.00,WeatherDisplay:10.37,2013-11-21 22:42:00,
2013-11-21 17:47:00,41.4,32.3,30.16,SE,144,0.8,1.1,70,0.00,CLR,SCT,0.00,WeatherDisplay:10.37,2013-11-21 22:47:00,
2013-11-21 17:52:00,41.3,32.6,30.16,SE,144,0.5,2.3,71,0.00,CLR,SCT,0.00,WeatherDisplay:10.37,2013-11-21 22:52:00,
2013-11-21 17:57:00,41.3,32.6,30.16,SE,144,0.3,1.1,71,0.00,CLR,SCT,0.00,WeatherDisplay:10.37,2013-11-21 22:57:00,
2013-11-21 18:02:00,41.3,32.6,30.16,SE,144,0.6,1.1,71,0.00,CLR,SCT,0.00,WeatherDisplay:10.37,2013-11-21 23:02:00,
2013-11-21 18:07:00,41.2,32.9,30.16,SE,144,1.5,2.3,72,0.00,CLR,SCT,0.00,WeatherDisplay:10.37,2013-11-21 23:07:00,
2013-11-21 18:12:00,41.2,32.9,30.15,SE,144,1.2,2.3,72,0.00,CLR,SCT,0.00,WeatherDisplay:10.37,2013-11-21 23:12:00,
2013-11-21 18:17:00,41.2,32.9,30.15,SE,144,1.2,2.3,72,0.00,CLR,SCT,0.00,WeatherDisplay:10.37,2013-11-21 23:17:00,
2013-11-21 18:22:00,41.1,32.8,30.15,SE,144,1.0,2.3,72,0.00,CLR,SCT,0.00,WeatherDisplay:10.37,2013-11-21 23:22:00,
2013-11-21 18:27:00,41.1,32.8,30.15,SE,144,1.0,2.3,72,0.00,CLR,SCT,0.00,WeatherDisplay:10.37,2013-11-21 23:27:00,
2013-11-21 18:32:00,41.0,33.0,30.15,SE,144,0.9,2.3,73,0.00,CLR,SCT,0.00,WeatherDisplay:10.37,2013-11-21 23:32:00,
2013-11-21 18:37:00,40.9,32.9,30.15,SE,144,1.0,2.3,73,0.00,CLR,SCT,0.00,WeatherDisplay:10.37,2013-11-21 23:37:00,
2013-11-21 18:42:00,40.9,32.9,30.15,SE,144,0.8,2.3,73,0.00,CLR,SCT,0.00,WeatherDisplay:10.37,2013-11-21 23:42:00,
2013-11-21 18:47:00,40.9,32.9,30.15,SE,144,1.1,2.3,73,0.00,CLR,SCT,0.00,WeatherDisplay:10.37,2013-11-21 23:47:00,
2013-11-21 18:52:00,40.9,33.2,30.15,SE,144,0.6,1.1,74,0.00,CLR,SCT,0.00,WeatherDisplay:10.37,2013-11-21 23:52:00,
2013-11-21 18:57:00,40.7,33.1,30.15,SE,144,0.9,1.1,74,0.00,CLR,SCT,0.00,WeatherDisplay:10.37,2013-11-21 23:57:00,
2013-11-21 19:02:00,40.8,33.2,30.15,SE,144,1.1,2.3,74,0.00,CLR,SCT,0.00,WeatherDisplay:10.37,2013-11-22 00:02:00,
2013-11-21 19:07:00,40.8,33.2,30.15,SE,144,0.5,1.1,74,0.00,CLR,SCT,0.00,WeatherDisplay:10.37,2013-11-22 00:07:00,
2013-11-21 19:12:00,40.8,33.5,30.14,SE,144,0.4,1.1,75,0.00,CLR,SCT,0.00,WeatherDisplay:10.37,2013-11-22 00:12:00,
2013-11-21 19:17:00,40.7,33.4,30.14,SE,144,0.4,1.1,75,0.00,CLR,SCT,0.00,WeatherDisplay:10.37,2013-11-22 00:17:00,
2013-11-21 19:22:00,40.7,33.7,30.14,SE,144,0.4,1.1,76,0.00,CLR,SCT,0.00,WeatherDisplay:10.37,2013-11-22 00:22:00,
2013-11-21 19:27:00,40.6,33.6,30.14,SE,144,0.0,1.1,76,0.00,CLR,SCT,0.00,WeatherDisplay:10.37,2013-11-22 00:27:00,
2013-11-21 19:32:00,40.6,33.6,30.14,SE,144,0.5,2.3,76,0.00,CLR,SCT,0.00,WeatherDisplay:10.37,2013-11-22 00:32:00,
2013-11-21 19:37:00,40.5,33.9,30.14,SE,144,0.7,1.1,77,0.00,CLR,SCT,0.00,WeatherDisplay:10.37,2013-11-22 00:37:00,
2013-11-21 19:42:00,40.4,33.8,30.14,SE,144,0.4,1.1,77,0.00,CLR,SCT,0.00,WeatherDisplay:10.37,2013-11-22 00:42:00,
2013-11-21 19:47:00,40.3,33.7,30.14,SE,144,0.3,1.1,77,0.00,CLR,SCT,0.00,WeatherDisplay:10.37,2013-11-22 00:47:00,
2013-11-21 19:52:00,40.2,33.9,30.14,SE,144,0.2,1.1,78,0.00,CLR,SCT,0.00,WeatherDisplay:10.37,2013-11-22 00:52:00,
2013-11-21 19:57:00,40.3,34.0,30.14,SE,144,0.0,1.1,78,0.00,CLR,SCT,0.00,WeatherDisplay:10.37,2013-11-22 00:57:00,
2013-11-21 20:02:00,40.3,34.0,30.14,SE,144,0.5,1.1,78,0.00,CLR,SCT,0.00,WeatherDisplay:10.37,2013-11-22 01:02:00,
2013-11-21 20:07:00,40.3,34.0,30.14,SE,144,0.1,1.1,78,0.00,CLR,SCT,0.00,WeatherDisplay:10.37,2013-11-22 01:07:00,
2013-11-21 20:12:00,40.4,34.1,30.14,SE,144,1.1,2.3,78,0.00,CLR,SCT,0.00,WeatherDisplay:10.37,2013-11-22 01:12:00,
2013-11-21 20:17:00,40.4,34.1,30.13,SE,144,0.5,1.1,78,0.00,CLR,SCT,0.00,WeatherDisplay:10.37,2013-11-22 01:17:00,
2013-11-21 20:22:00,40.3,34.3,30.13,SE,144,0.1,1.1,79,0.00,CLR,SCT,0.00,WeatherDisplay:10.37,2013-11-22 01:22:00,
2013-11-21 20:27:00,40.2,34.2,30.13,SE,144,0.2,1.1,79,0.00,CLR,SCT,0.00,WeatherDisplay:10.37,2013-11-22 01:27:00,
2013-11-21 20:32:00,40.1,34.1,30.13,SE,144,0.0,1.1,79,0.00,CLR,SCT,0.00,WeatherDisplay:10.37,2013-11-22 01:32:00,
2013-11-21 20:37:00,40.2,34.2,30.13,SE,144,0.0,0.0,79,0.00,CLR,SCT,0.00,WeatherDisplay:10.37,2013-11-22 01:37:00,
2013-11-21 20:42:00,40.2,34.2,30.12,SE,144,0.1,1.1,79,0.00,CLR,SCT,0.00,WeatherDisplay:10.37,2013-11-22 01:42:00,
2013-11-21 20:47:00,40.2,34.2,30.12,SE,144,0.0,0.0,79,0.00,CLR,SCT,0.00,WeatherDisplay:10.37,2013-11-22 01:47:00,
2013-11-21 20:52:00,40.2,34.2,30.12,SE,144,0.0,1.1,79,0.00,CLR,SCT,0.00,WeatherDisplay:10.37,2013-11-22 01:52:00,
2013-11-21 20:57:00,40.2,34.2,30.11,SE,144,0.7,2.3,79,0.00,CLR,SCT,0.00,WeatherDisplay:10.37,2013-11-22 01:57:00,
2013-11-21 21:02:00,40.3,34.6,30.12,SE,144,0.0,0.0,80,0.00,CLR,SCT,0.00,WeatherDisplay:10.37,2013-11-22 02:02:00,
2013-11-21 21:07:00,40.4,34.7,30.12,SE,144,0.0,1.1,80,0.00,CLR,SCT,0.00,WeatherDisplay:10.37,2013-11-22 02:07:00,
2013-11-21 21:08:00,40.4,34.7,30.12,SE,144,0.0,0.0,80,0.00,CLR,SCT,0.00,WeatherDisplay:10.37,2013-11-22 02:08:00,
2013-11-21 21:09:00,40.4,34.7,30.12,SE,144,0.1,0.0,80,0.00,CLR,SCT,0.00,WeatherDisplay:10.37,2013-11-22 02:09:00,
2013-11-21 21:14:00,40.5,34.5,30.12,SE,144,0.4,1.1,79,0.00,CLR,SCT,0.00,WeatherDisplay:10.37,2013-11-22 02:14:00,
2013-11-21 21:19:00,40.7,35.0,30.12,SE,144,0.0,0.0,80,0.00,CLR,SCT,0.00,WeatherDisplay:10.37,2013-11-22 02:19:00,
2013-11-21 21:24:00,40.6,34.6,30.12,SE,144,0.5,1.1,79,0.00,CLR,SCT,0.00,WeatherDisplay:10.37,2013-11-22 02:24:00,
2013-11-21 21:29:00,40.6,34.9,30.11,SE,144,0.0,1.1,80,0.00,CLR,SCT,0.00,WeatherDisplay:10.37,2013-11-22 02:29:00,
2013-11-21 21:34:00,40.6,34.9,30.10,SE,144,0.8,2.3,80,0.00,CLR,SCT,0.00,WeatherDisplay:10.37,2013-11-22 02:34:00,
2013-11-21 21:39:00,40.5,34.8,30.11,SE,144,0.0,0.0,80,0.00,CLR,SCT,0.00,WeatherDisplay:10.37,2013-11-22 02:39:00,
2013-11-21 21:44:00,40.6,34.9,30.11,SE,144,0.0,1.1,80,0.00,CLR,SCT,0.00,WeatherDisplay:10.37,2013-11-22 02:44:00,
2013-11-21 21:49:00,40.7,35.0,30.10,SE,144,0.0,0.0,80,0.00,CLR,SCT,0.00,WeatherDisplay:10.37,2013-11-22 02:49:00,
2013-11-21 21:54:00,40.8,35.1,30.11,SE,144,0.0,0.0,80,0.00,CLR,SCT,0.00,WeatherDisplay:10.37,2013-11-22 02:54:00,
2013-11-21 21:59:00,40.8,35.1,30.11,SE,144,0.0,0.0,80,0.00,CLR,SCT,0.00,WeatherDisplay:10.37,2013-11-22 02:59:00,
2013-11-21 22:04:00,40.9,35.2,30.11,SE,144,0.0,0.0,80,0.00,CLR,SCT,0.00,WeatherDisplay:10.37,2013-11-22 03:04:00,
2013-11-21 22:09:00,40.9,35.2,30.11,SE,144,0.0,0.0,80,0.00,CLR,SCT,0.00,WeatherDisplay:10.37,2013-11-22 03:09:00,
2013-11-21 22:14:00,40.9,35.2,30.11,SE,144,0.0,0.0,80,0.00,CLR,SCT,0.00,WeatherDisplay:10.37,2013-11-22 03:14:00,
2013-11-21 22:19:00,40.9,35.2,30.10,SE,144,0.0,0.0,80,0.00,CLR,SCT,0.00,WeatherDisplay:10.37,2013-11-22 03:19:00,
2013-11-21 22:24:00,41.0,35.6,30.10,SE,144,0.3,0.0,81,0.00,CLR,SCT,0.00,WeatherDisplay:10.37,2013-11-22 03:24:00,
2013-11-21 22:29:00,41.0,35.3,30.10,SE,144,0.1,1.1,80,0.00,CLR,SCT,0.00,WeatherDisplay:10.37,2013-11-22 03:29:00,
2013-11-21 22:34:00,41.0,35.3,30.10,SE,144,0.0,1.1,80,0.00,CLR,SCT,0.00,WeatherDisplay:10.37,2013-11-22 03:34:00,
2013-11-21 22:39:00,41.1,35.4,30.10,SE,144,0.2,1.1,80,0.00,CLR,SCT,0.00,WeatherDisplay:10.37,2013-11-22 03:39:00,
2013-11-21 22:44:00,41.2,35.5,30.10,SE,144,0.0,1.1,80,0.00,CLR,SCT,0.00,WeatherDisplay:10.37,2013-11-22 03:44:00,
2013-11-21 22:49:00,41.2,35.5,30.10,SE,144,0.1,0.0,80,0.00,CLR,SCT,0.00,WeatherDisplay:10.37,2013-11-22 03:49:00,
2013-11-21 22:54:00,41.3,35.6,30.10,SE,144,0.0,1.1,80,0.00,CLR,SCT,0.00,WeatherDisplay:10.37,2013-11-22 03:54:00,
2013-11-21 22:59:00,41.2,35.8,30.09,SE,144,0.0,1.1,81,0.00,CLR,SCT,0.00,WeatherDisplay:10.37,2013-11-22 03:59:00,
2013-11-21 23:04:00,41.1,35.7,30.09,SE,144,0.1,1.1,81,0.00,CLR,SCT,0.00,WeatherDisplay:10.37,2013-11-22 04:04:00,
2013-11-21 23:09:00,41.2,35.8,30.09,SE,144,0.0,0.0,81,0.00,CLR,SCT,0.00,WeatherDisplay:10.37,2013-11-22 04:09:00,
2013-11-21 23:14:00,41.2,35.5,30.09,SE,144,0.1,1.0,80,0.00,CLR,SCT,0.00,WeatherDisplay:10.37,2013-11-22 04:14:00,
2013-11-21 23:19:00,41.1,35.7,30.08,SE,144,0.3,1.1,81,0.00,CLR,SCT,0.00,WeatherDisplay:10.37,2013-11-22 04:19:00,
2013-11-21 23:24:00,41.1,35.7,30.08,SE,144,0.0,1.1,81,0.00,CLR,SCT,0.00,WeatherDisplay:10.37,2013-11-22 04:24:00,
2013-11-21 23:29:00,41.2,35.8,30.08,SE,144,0.0,1.1,81,0.00,CLR,SCT,0.00,WeatherDisplay:10.37,2013-11-22 04:29:00,
2013-11-21 23:34:00,41.2,35.8,30.08,SE,144,0.0,0.0,81,0.00,CLR,SCT,0.00,WeatherDisplay:10.37,2013-11-22 04:34:00,
2013-11-21 23:39:00,41.2,35.8,30.08,SE,144,0.0,1.0,81,0.00,CLR,SCT,0.00,WeatherDisplay:10.37,2013-11-22 04:39:00,
2013-11-21 23:44:00,41.2,35.8,30.07,SE,144,0.0,1.1,81,0.00,CLR,SCT,0.00,WeatherDisplay:10.37,2013-11-22 04:44:00,
2013-11-21 23:49:00,41.2,35.8,30.07,SE,144,0.0,1.1,81,0.00,CLR,SCT,0.00,WeatherDisplay:10.37,2013-11-22 04:49:00,
2013-11-21 23:54:00,41.2,36.1,30.07,SE,144,0.1,1.1,82,0.00,CLR,SCT,0.00,WeatherDisplay:10.37,2013-11-22 04:54:00,
2013-11-21 23:59:00,41.1,36.0,30.07,SE,144,0.4,1.0,82,0.00,CLR,SCT,0.00,WeatherDisplay:10.37,2013-11-22 04:59:00,